Flora, IL

03:25 PM CDT am 27. August 2016 (GMT -0500)
Flora Municipal | | Change Station

Höhe 472 ft 38.67 °N, 88.45 °W | Updated 10 minutes ago

Scattered Clouds
Teils Wolkig
87 °F
gefühlte 96 °F
N
7
Wind Wechselnd Wind aus Süd

Heute
Max. -- | schwach -- °F
--% Regenrisiko
Gestern
Max. -- | schwach -- °F
Precip. -- inch
Druck 30.06 inch
Sichtweite 7.0 Meilen
Wolken Teils Wolkig 3100 ft
Hitzeindex 96 °F
Taupunkt 74 °F
Feuchtigkeit 66%
Regen 0.00 inch
Schneehöhe Nicht verfügbar..
6:19 AM 7:30 PM
Letztes Viertel, 22% visible
METAR KFOA 272015Z AUTO 18006KT 7SM SCT031 31/24 A3006 RMK AO2 T03060236
Druck 30.06 inch
Sichtweite 7.0 Meilen
Wolken Teils Wolkig 3100 ft
Hitzeindex 96 °F
Taupunkt 74 °F
Feuchtigkeit 66%
Regen 0.00 inch
Schneehöhe Nicht verfügbar..
6:19 AM 7:30 PM
Letztes Viertel, 22% visible
METAR KFOA 272015Z AUTO 18006KT 7SM SCT031 31/24 A3006 RMK AO2 T03060236

10-Day Weather Forecast

Almanac

Astronomie

Aug. 27, 2016 Aufgang Untergang
Genaue Zeit
Bürgerliche Dämmerung
Nautische Dämmerung
Astronomische Dämmerung
Mond
Länge des sichtbaren Lichts
Tageslänge
Tomorrow will be .
, % of the Moon is Illuminated

Heutige Rekorde

State Highs State Lows

Community

WunderPhotos

Upload Photos

1,935,434 Fotos hochgeladen!

WunderBlog® & News

Nearby

Luftqualität

  Luftqualität LQ Index Schadstoff
Not available.

Schneehöhe

Station Depth Höhe

Erdbebenaktivität

Stadt Distance Mag. Time & Date
Minimum magnitude displayed is 2.5.

küstennahe Wassertemperaturen

Ort Temperatur

Stations

Wetterstationen in der Umgebung

Stationsstandort Temp. Windchill Taupunkt Feuchtigkeit Wind Precip. Höhe Aktualisiert Art
                   

Watches & Warnings

There are currently no watches in effect.